createdAt,value
2019-04-20T00:01:01.674Z,13.91
2019-04-20T00:06:09.055Z,13.73
2019-04-20T00:11:21.871Z,13.40
2019-04-20T00:16:23.080Z,13.23
2019-04-20T00:21:53.411Z,13.22
2019-04-20T00:27:16.309Z,13.27
2019-04-20T00:32:12.508Z,13.41
2019-04-20T00:37:08.904Z,13.42
2019-04-20T00:42:16.276Z,13.52
2019-04-20T00:47:34.888Z,13.62
2019-04-20T00:52:42.491Z,13.67
2019-04-20T00:57:46.376Z,13.71
2019-04-20T01:02:54.106Z,13.77
2019-04-20T01:08:02.144Z,13.83
2019-04-20T01:13:12.203Z,13.84
2019-04-20T01:18:15.188Z,13.82
2019-04-20T01:23:23.778Z,13.76
2019-04-20T01:28:46.366Z,13.81
2019-04-20T01:33:46.087Z,13.76
2019-04-20T01:38:57.803Z,13.90
2019-04-20T01:43:50.210Z,13.88
2019-04-20T01:48:59.993Z,13.76
2019-04-20T01:54:24.934Z,13.83
2019-04-20T01:59:37.976Z,13.73
2019-04-20T02:04:39.042Z,13.74
2019-04-20T02:09:48.506Z,13.70
2019-04-20T02:14:55.262Z,13.59
2019-04-20T02:20:15.729Z,13.49
2019-04-20T02:25:03.834Z,13.34
2019-04-20T02:36:04.642Z,13.32
2019-04-20T02:41:11.547Z,13.40
2019-04-20T02:46:12.322Z,13.20
2019-04-20T02:51:26.241Z,13.20
2019-04-20T02:56:32.018Z,13.34
2019-04-20T03:01:36.816Z,13.55
2019-04-20T03:06:36.308Z,13.57
2019-04-20T03:11:59.589Z,13.64
2019-04-20T03:16:57.172Z,13.79
2019-04-20T03:22:09.463Z,13.79
2019-04-20T03:27:12.385Z,13.72
2019-04-20T03:37:42.205Z,13.51
2019-04-20T03:42:22.375Z,13.45
2019-04-20T03:47:38.577Z,13.33
2019-04-20T03:53:02.750Z,13.35
2019-04-20T03:58:17.040Z,13.41
2019-04-20T04:03:36.159Z,13.41
2019-04-20T04:08:24.759Z,13.38
2019-04-20T04:13:22.915Z,13.54
2019-04-20T04:18:36.844Z,13.53
2019-04-20T04:23:49.015Z,13.55
2019-04-20T04:29:00.297Z,13.59
2019-04-20T04:34:10.769Z,13.58
2019-04-20T04:39:22.164Z,13.51
2019-04-20T04:44:21.447Z,13.30
2019-04-20T04:49:20.840Z,13.07
2019-04-20T04:54:28.822Z,12.85
2019-04-20T04:59:25.796Z,12.84
2019-04-20T05:05:08.610Z,12.91
2019-04-20T05:09:48.644Z,12.98
2019-04-20T05:15:04.313Z,13.08
2019-04-20T05:20:19.023Z,13.18
2019-04-20T05:25:30.904Z,13.12
2019-04-20T05:30:24.546Z,13.35
2019-04-20T05:35:49.937Z,13.50
2019-04-20T05:40:55.714Z,13.91
2019-04-20T05:45:58.699Z,13.83
2019-04-20T05:51:12.162Z,14.03
2019-04-20T05:56:17.269Z,14.16
2019-04-20T06:01:26.930Z,14.18
2019-04-20T06:06:34.580Z,14.31
2019-04-20T06:11:47.832Z,14.32
2019-04-20T06:16:59.795Z,14.46
2019-04-20T06:22:12.596Z,14.70
2019-04-20T06:27:16.378Z,14.94
2019-04-20T06:32:28.785Z,15.24
2019-04-20T06:37:29.622Z,15.24
2019-04-20T06:42:36.633Z,14.92
2019-04-20T06:47:47.010Z,15.21
2019-04-20T06:52:52.713Z,15.95
2019-04-20T06:58:22.102Z,16.48
2019-04-20T07:03:17.139Z,16.61
2019-04-20T07:08:37.399Z,17.01
2019-04-20T07:13:19.993Z,17.32
2019-04-20T07:18:35.654Z,17.27
2019-04-20T07:23:41.884Z,17.19
2019-04-20T07:28:56.797Z,17.56
2019-04-20T07:33:59.354Z,17.84
2019-04-20T07:39:07.592Z,18.21
2019-04-20T07:44:11.795Z,18.05
2019-04-20T07:49:22.441Z,18.05
2019-04-20T07:54:31.625Z,18.00
2019-04-20T07:59:25.230Z,17.87
2019-04-20T08:04:44.212Z,17.80
2019-04-20T08:09:44.265Z,17.70
2019-04-20T08:15:16.598Z,17.84
2019-04-20T08:20:09.251Z,18.03
2019-04-20T08:25:08.593Z,18.03
2019-04-20T08:30:30.909Z,18.25
2019-04-20T08:35:40.361Z,18.43
2019-04-20T08:40:43.599Z,18.78
2019-04-20T08:45:57.460Z,19.12
2019-04-20T08:50:57.434Z,19.50
2019-04-20T08:56:00.257Z,19.65
2019-04-20T09:00:58.809Z,19.88
2019-04-20T09:06:09.813Z,20.26
2019-04-20T09:11:25.002Z,20.88
2019-04-20T09:16:19.874Z,21.23
2019-04-20T09:21:35.553Z,22.17
2019-04-20T09:26:50.268Z,22.59
2019-04-20T09:31:52.097Z,22.19
2019-04-20T09:37:22.424Z,22.24
2019-04-20T09:42:15.212Z,22.43
2019-04-20T09:47:28.375Z,22.80
2019-04-20T09:52:46.414Z,23.15
2019-04-20T09:57:54.228Z,22.96
2019-04-20T10:02:43.383Z,23.49
2019-04-20T10:07:56.026Z,24.62
2019-04-20T10:12:58.372Z,24.66
2019-04-20T10:18:05.746Z,25.66
2019-04-20T10:23:12.472Z,24.89
2019-04-20T10:28:19.422Z,24.63
2019-04-20T10:33:25.791Z,24.10
2019-04-20T10:38:34.294Z,24.55
2019-04-20T10:43:40.756Z,24.37
2019-04-20T10:48:51.670Z,24.79
2019-04-20T10:53:56.203Z,24.86
2019-04-20T10:59:01.539Z,24.38
2019-04-20T11:04:08.361Z,24.28
2019-04-20T11:09:14.324Z,24.49
2019-04-20T11:14:26.606Z,24.71
2019-04-20T11:19:27.439Z,24.15
2019-04-20T11:24:34.363Z,24.00
2019-04-20T11:29:40.240Z,25.29
2019-04-20T11:34:47.032Z,26.70
2019-04-20T11:39:52.917Z,26.63
2019-04-20T11:44:58.402Z,27.51
2019-04-20T11:50:03.839Z,27.32
2019-04-20T11:55:10.535Z,27.49
2019-04-20T12:00:19.200Z,27.55
2019-04-20T12:05:32.411Z,28.42
2019-04-20T12:10:33.135Z,28.65
2019-04-20T12:15:39.550Z,28.54
2019-04-20T12:20:44.999Z,28.84
2019-04-20T12:25:50.406Z,29.19
2019-04-20T12:31:03.042Z,28.58
2019-04-20T12:36:03.243Z,28.31
2019-04-20T12:41:11.031Z,27.32
2019-04-20T12:46:18.328Z,26.42
2019-04-20T12:51:30.382Z,26.59
2019-04-20T12:56:30.647Z,26.72
2019-04-20T13:01:37.315Z,26.96
2019-04-20T13:06:44.676Z,27.17
2019-04-20T13:12:04.430Z,27.16
2019-04-20T13:17:06.309Z,27.09
2019-04-20T13:22:12.965Z,28.16
2019-04-20T13:27:18.698Z,29.80
2019-04-20T13:32:25.576Z,28.08
2019-04-20T13:37:31.867Z,27.91
2019-04-20T13:42:38.175Z,27.81
2019-04-20T13:47:43.571Z,26.46
2019-04-20T13:52:49.373Z,25.30
2019-04-20T13:58:00.334Z,25.09
2019-04-20T14:03:08.971Z,24.64
2019-04-20T14:08:21.130Z,24.31
2019-04-20T14:13:36.556Z,24.17
2019-04-20T14:18:33.706Z,24.70
2019-04-20T14:23:39.143Z,24.54
2019-04-20T14:28:45.128Z,24.04
2019-04-20T14:33:50.914Z,23.87
2019-04-20T14:38:56.146Z,23.78
2019-04-20T14:44:01.642Z,23.60
2019-04-20T14:49:07.079Z,24.21
2019-04-20T14:54:13.775Z,23.36
2019-04-20T14:59:25.323Z,23.36
2019-04-20T15:04:32.044Z,23.46
2019-04-20T15:09:39.374Z,23.42
2019-04-20T15:14:44.995Z,24.01
2019-04-20T15:20:03.645Z,24.22
2019-04-20T15:25:09.637Z,24.26
2019-04-20T15:30:16.228Z,23.16
2019-04-20T15:35:23.355Z,22.92
2019-04-20T15:40:29.033Z,22.34
2019-04-20T15:45:34.296Z,22.16
2019-04-20T15:50:41.360Z,21.66
2019-04-20T15:55:48.747Z,21.22
2019-04-20T16:00:54.636Z,21.37
2019-04-20T16:06:03.257Z,21.54
2019-04-20T16:11:11.427Z,21.46
2019-04-20T16:16:16.976Z,21.40
2019-04-20T16:21:26.068Z,21.47
2019-04-20T16:26:35.589Z,21.09
2019-04-20T16:31:43.934Z,20.61
2019-04-20T16:36:50.132Z,20.37
2019-04-20T16:41:56.178Z,20.43
2019-04-20T16:47:01.616Z,20.65
2019-04-20T16:52:07.403Z,20.51
2019-04-20T16:57:14.211Z,20.07
2019-04-20T17:02:21.172Z,19.62
2019-04-20T17:07:39.414Z,19.42
2019-04-20T17:12:46.050Z,19.39
2019-04-20T17:17:53.156Z,19.38
2019-04-20T17:22:58.537Z,19.15
2019-04-20T17:28:24.801Z,19.06
2019-04-20T17:33:47.499Z,18.86
2019-04-20T17:38:48.474Z,18.53
2019-04-20T17:44:11.655Z,18.30
2019-04-20T17:49:13.617Z,18.16
2019-04-20T17:54:23.495Z,18.16
2019-04-20T17:59:30.288Z,18.08
2019-04-20T18:05:06.570Z,18.01
2019-04-20T18:10:14.301Z,17.95
2019-04-20T18:15:21.241Z,17.58
2019-04-20T18:20:14.961Z,17.34
2019-04-20T18:25:53.373Z,17.13
2019-04-20T18:30:43.662Z,16.72
2019-04-20T18:35:46.020Z,16.45
2019-04-20T18:40:55.715Z,16.14
2019-04-20T18:46:15.104Z,15.55
2019-04-20T18:51:03.921Z,15.26
2019-04-20T18:56:09.620Z,15.03
2019-04-20T19:01:15.275Z,14.71
2019-04-20T19:06:21.775Z,14.43
2019-04-20T19:11:28.581Z,13.86
2019-04-20T19:16:52.884Z,13.68
2019-04-20T19:21:45.957Z,13.55
2019-04-20T19:26:58.347Z,13.61
2019-04-20T19:32:17.563Z,13.47
2019-04-20T19:37:15.689Z,13.32
2019-04-20T19:42:29.795Z,13.10
2019-04-20T19:47:38.350Z,12.79
2019-04-20T19:52:51.562Z,12.35
2019-04-20T19:57:51.247Z,12.18
2019-04-20T20:02:41.514Z,12.01
2019-04-20T20:07:52.525Z,11.82
2019-04-20T20:12:58.986Z,11.77
2019-04-20T20:18:19.395Z,11.80
2019-04-20T20:23:10.046Z,11.61
2019-04-20T20:28:27.088Z,11.43
2019-04-20T20:33:39.505Z,11.39
2019-04-20T20:38:36.933Z,11.64
2019-04-20T20:43:49.626Z,11.47
2019-04-20T20:49:06.293Z,11.69
2019-04-20T20:54:03.318Z,11.76
2019-04-20T20:59:07.530Z,11.95
2019-04-20T21:04:06.901Z,11.71
2019-04-20T21:09:12.570Z,11.27
2019-04-20T21:14:23.779Z,11.26
2019-04-20T21:19:45.342Z,11.39
2019-04-20T21:24:38.026Z,11.74
2019-04-20T21:29:49.293Z,11.67
2019-04-20T21:34:55.618Z,11.42
2019-04-20T21:40:01.481Z,11.68
2019-04-20T21:45:10.293Z,12.17
2019-04-20T21:50:31.214Z,12.20
2019-04-20T21:55:19.336Z,12.25
2019-04-20T22:00:40.843Z,12.37
2019-04-20T22:05:42.315Z,12.43
2019-04-20T22:10:50.038Z,12.43
2019-04-20T22:16:01.428Z,12.43
2019-04-20T22:21:11.182Z,12.28
2019-04-20T22:26:20.754Z,12.33
2019-04-20T22:31:16.374Z,12.40
2019-04-20T22:36:25.939Z,12.30
2019-04-20T22:41:30.064Z,12.24
2019-04-20T22:46:37.575Z,12.44
2019-04-20T22:51:53.184Z,12.31
2019-04-20T22:57:01.069Z,12.23
2019-04-20T23:02:00.327Z,12.00
2019-04-20T23:07:03.229Z,11.95
2019-04-20T23:12:12.223Z,12.09
2019-04-20T23:17:18.465Z,12.19
2019-04-20T23:22:23.084Z,12.27
2019-04-20T23:27:31.602Z,12.18
2019-04-20T23:32:35.873Z,12.28
2019-04-20T23:37:42.290Z,12.24
2019-04-20T23:42:53.715Z,12.18
2019-04-20T23:48:05.394Z,12.15
2019-04-20T23:53:29.828Z,12.05
2019-04-20T23:58:19.478Z,11.94
